Terminal Aerodrome Forecast
Issued by NWS Portland, OR

Home | Current Version | Previous Version | Text Only | Print | Product List | Glossary On
Versions: 1 2 3 4 5 6 7 8 9 10 11 12 13 14 15 16 17 18 19 20 21 22 23 24 25 26 27 28 29 30 31 32 33 34 35 36 37 38 39 40 41 42 43 44 45
000
FTUS46 KPQR 022343
TAFAST
TAF
KAST 022343Z 0300/0324 24012KT P6SM -SHRA SCT008 BKN015 OVC025
     FM030100 29014KT P6SM SCT015 BKN025
     FM030600 30005KT P6SM BKN035
     FM031100 28006KT P6SM OVC015
     FM031900 30011KT P6SM SCT035=

USA.gov is the U.S. government's official web portal to all federal, state and local government web resources and services.